createdAt,value
2022-12-11T00:04:51.100Z,-4.09
2022-12-11T00:14:53.474Z,-4.33
2022-12-11T00:24:55.954Z,-4.52
2022-12-11T00:34:58.673Z,-4.76
2022-12-11T00:45:01.552Z,-5.00
2022-12-11T00:55:04.156Z,-5.07
2022-12-11T01:05:07.176Z,-5.21
2022-12-11T01:15:10.089Z,-5.33
2022-12-11T01:25:13.284Z,-5.37
2022-12-11T01:35:16.227Z,-5.57
2022-12-11T01:45:30.007Z,-5.76
2022-12-11T01:55:34.088Z,-5.89
2022-12-11T02:05:37.375Z,-6.07
2022-12-11T02:15:57.409Z,-6.32
2022-12-11T02:26:25.393Z,-6.39
2022-12-11T02:36:31.900Z,-6.49
2022-12-11T02:46:35.955Z,-6.64
2022-12-11T02:56:46.095Z,-6.76
2022-12-11T03:06:54.127Z,-6.92
2022-12-11T03:17:05.502Z,-6.70
2022-12-11T03:27:18.962Z,-6.27
2022-12-11T03:37:23.364Z,-5.81
2022-12-11T03:47:29.272Z,-5.53
2022-12-11T03:57:36.683Z,-5.30
2022-12-11T04:07:39.168Z,-5.18
2022-12-11T04:18:00.114Z,-4.95
2022-12-11T04:28:02.436Z,-4.68
2022-12-11T04:38:05.041Z,-4.40
2022-12-11T04:48:08.455Z,-4.30
2022-12-11T04:58:10.936Z,-4.29
2022-12-11T05:08:13.505Z,-4.22
2022-12-11T05:18:16.140Z,-4.09
2022-12-11T05:28:18.599Z,-3.96
2022-12-11T05:38:21.236Z,-3.82
2022-12-11T05:48:24.172Z,-3.79
2022-12-11T05:58:26.604Z,-3.73
2022-12-11T06:08:29.394Z,-3.63
2022-12-11T06:18:32.041Z,-3.60
2022-12-11T06:28:34.268Z,-3.49
2022-12-11T06:38:37.033Z,-3.50
2022-12-11T06:48:40.213Z,-3.45
2022-12-11T06:58:44.348Z,-3.37
2022-12-11T07:08:47.036Z,-3.33
2022-12-11T07:18:51.803Z,-3.37
2022-12-11T07:28:58.930Z,-3.38
2022-12-11T07:39:01.996Z,-3.36
2022-12-11T07:49:06.548Z,-3.39
2022-12-11T07:59:08.993Z,-3.39
2022-12-11T08:09:20.920Z,-3.27
2022-12-11T08:19:24.257Z,-3.21
2022-12-11T08:29:26.881Z,-3.30
2022-12-11T08:39:30.594Z,-3.16
2022-12-11T08:49:34.698Z,-3.07
2022-12-11T08:59:37.396Z,-2.97
2022-12-11T09:09:40.148Z,-2.86
2022-12-11T09:19:43.073Z,-2.76
2022-12-11T09:29:45.807Z,-2.60
2022-12-11T09:39:49.000Z,-2.40
2022-12-11T09:50:13.391Z,-2.14
2022-12-11T10:00:40.095Z,-2.26
2022-12-11T10:10:49.959Z,-2.29
2022-12-11T10:20:54.860Z,-1.98
2022-12-11T10:31:12.436Z,-1.75
2022-12-11T10:41:20.131Z,-1.60
2022-12-11T10:51:40.934Z,-1.42
2022-12-11T11:01:47.962Z,-1.05
2022-12-11T11:11:51.129Z,-0.46
2022-12-11T11:22:03.411Z,0.03
2022-12-11T11:32:23.128Z,0.29
2022-12-11T11:42:38.533Z,0.25
2022-12-11T11:52:48.675Z,-0.07
2022-12-11T12:02:57.860Z,-0.46
2022-12-11T12:13:23.883Z,-0.55
2022-12-11T12:23:56.964Z,-0.71
2022-12-11T12:34:10.621Z,-0.83
2022-12-11T12:44:19.056Z,-0.50
2022-12-11T12:54:22.667Z,-0.38
2022-12-11T13:04:54.549Z,-0.45
2022-12-11T13:14:58.370Z,-0.67
2022-12-11T13:25:05.178Z,-0.49
2022-12-11T13:35:15.839Z,-0.79
2022-12-11T13:45:23.495Z,-1.33
2022-12-11T13:55:32.609Z,-1.54
2022-12-11T14:05:36.483Z,-1.77
2022-12-11T14:15:45.029Z,-1.95
2022-12-11T14:26:01.705Z,-2.20
2022-12-11T14:36:05.615Z,-2.44
2022-12-11T14:46:22.560Z,-2.64
2022-12-11T14:56:28.157Z,-2.84
2022-12-11T15:06:36.803Z,-3.09
2022-12-11T15:16:42.086Z,-3.34
2022-12-11T15:26:49.278Z,-3.57
2022-12-11T15:36:51.712Z,-3.85
2022-12-11T15:46:53.963Z,-4.09
2022-12-11T15:56:56.584Z,-4.43
2022-12-11T16:06:59.113Z,-4.80
2022-12-11T16:17:01.477Z,-5.12
2022-12-11T16:27:04.990Z,-5.40
2022-12-11T16:37:08.962Z,-5.64
2022-12-11T16:47:11.432Z,-5.83
2022-12-11T16:57:13.795Z,-6.01
2022-12-11T17:07:16.361Z,-6.15
2022-12-11T17:17:18.659Z,-6.36
2022-12-11T17:27:21.004Z,-6.50
2022-12-11T17:37:23.353Z,-6.71
2022-12-11T17:47:25.705Z,-6.83
2022-12-11T17:57:28.081Z,-6.97
2022-12-11T18:07:30.404Z,-7.12
2022-12-11T18:17:32.781Z,-7.17
2022-12-11T18:27:35.107Z,-7.33
2022-12-11T18:37:38.016Z,-7.47
2022-12-11T18:47:40.417Z,-7.49
2022-12-11T18:57:43.216Z,-7.47
2022-12-11T19:07:45.781Z,-7.55
2022-12-11T19:17:48.160Z,-7.58
2022-12-11T19:27:52.012Z,-7.59
2022-12-11T19:37:56.711Z,-7.77
2022-12-11T19:47:59.079Z,-7.95
2022-12-11T19:58:01.862Z,-8.02
2022-12-11T20:08:35.291Z,-8.07
2022-12-11T20:18:28.308Z,-8.22
2022-12-11T20:28:31.570Z,-8.24
2022-12-11T20:38:35.211Z,-8.39
2022-12-11T20:48:39.655Z,-8.45
2022-12-11T20:58:42.538Z,-8.55
2022-12-11T21:08:45.212Z,-8.55
2022-12-11T21:18:49.178Z,-8.59
2022-12-11T21:28:53.219Z,-8.63
2022-12-11T21:38:56.178Z,-8.38
2022-12-11T21:48:59.184Z,-8.10
2022-12-11T21:59:02.610Z,-7.92
2022-12-11T22:09:06.282Z,-7.82
2022-12-11T22:19:08.718Z,-7.69
2022-12-11T22:29:11.494Z,-7.68
2022-12-11T22:39:14.187Z,-7.70
2022-12-11T22:49:17.273Z,-7.77
2022-12-11T22:59:19.692Z,-7.66
2022-12-11T23:09:22.103Z,-7.43
2022-12-11T23:19:25.748Z,-7.17
2022-12-11T23:29:28.475Z,-6.91
2022-12-11T23:39:30.984Z,-6.78
2022-12-11T23:49:33.381Z,-6.79
2022-12-11T23:59:36.967Z,-6.87
